TAF Text Data
IDs:
Format:
Raw Decoded Include METAR

Data at: 1816 UTC 03 Jul 2020

KECP 031726Z 0318/0418 VRB05KT P6SM VCTS BKN040CB BKN060
  TEMPO 0318/0322 VRB10G20KT 4SM TSRA
  FM040000 24008KT P6SM BKN060
  FM041600 17004KT P6SM VCTS BKN040CB